Time;durP1;ratioP1;P1;durP2;ratioP2;P2;SDS_P1;SDS_P2;PMS_P1;PMS_P2;Temp;Humidity;BMP_temperature;BMP_pressure;BME280_temperature;BME280_humidity;BME280_pressure;Samples;Min_cycle;Max_cycle;Signal;HPM_P1;HPM_P2
2021/01/28 00:00:32;;;;;;;16.63;9.13;;;;;;;1.58;49.21;93169.88;4959423;28;20079;-80
2021/01/28 00:02:58;;;;;;;12.73;8.70;;;;;;;1.70;49.19;93178.34;4957762;28;20400;-78
2021/01/28 00:05:26;;;;;;;14.63;9.98;;;;;;;1.58;49.68;93163.88;4960529;28;20112;-80
2021/01/28 00:07:52;;;;;;;12.10;8.15;;;;;;;1.61;50.11;93173.84;4959523;28;20042;-80
2021/01/28 00:10:19;;;;;;;12.93;9.93;;;;;;;1.68;49.83;93183.00;4962954;28;20040;-79
2021/01/28 00:12:46;;;;;;;11.15;8.65;;;;;;;1.51;49.74;93171.16;4957947;28;20047;-79
2021/01/28 00:15:14;;;;;;;14.98;8.18;;;;;;;1.64;49.98;93178.53;4960608;28;20081;-79
2021/01/28 00:17:39;;;;;;;10.98;7.70;;;;;;;1.67;49.83;93188.44;4960129;28;20042;-80
2021/01/28 00:20:15;;;;;;;11.65;7.90;;;;;;;1.71;50.29;93184.34;4953457;28;20113;-80
2021/01/28 00:22:40;;;;;;;14.13;8.50;;;;;;;1.43;50.14;93174.19;4961475;28;20031;-80
2021/01/28 00:25:07;;;;;;;13.90;8.68;;;;;;;1.50;49.70;93188.59;4959847;28;21077;-78
2021/01/28 00:27:32;;;;;;;13.45;8.65;;;;;;;1.56;50.19;93194.63;4960383;28;20045;-80
2021/01/28 00:29:58;;;;;;;13.18;7.95;;;;;;;1.50;49.79;93179.97;4959010;28;20039;-80
2021/01/28 00:32:23;;;;;;;13.38;8.38;;;;;;;1.66;50.06;93192.09;4960733;28;20055;-80
2021/01/28 00:34:48;;;;;;;10.45;7.53;;;;;;;1.64;50.07;93184.53;4960358;28;20709;-81
2021/01/28 00:37:14;;;;;;;12.27;7.88;;;;;;;1.54;50.23;93192.25;4961186;28;20023;-80
2021/01/28 00:39:39;;;;;;;11.80;8.23;;;;;;;1.43;50.47;93176.78;4962288;28;20117;-80
2021/01/28 00:42:05;;;;;;;10.18;7.72;;;;;;;1.48;50.31;93189.84;4958452;28;20081;-80
2021/01/28 00:44:30;;;;;;;11.50;7.68;;;;;;;1.44;50.09;93167.94;4956513;28;20074;-80
2021/01/28 00:46:55;;;;;;;9.07;6.97;;;;;;;1.45;50.19;93190.34;4960064;28;20046;-80
2021/01/28 00:49:21;;;;;;;14.50;9.00;;;;;;;1.49;50.23;93183.59;4959133;28;20026;-78
2021/01/28 00:51:47;;;;;;;12.15;8.05;;;;;;;1.49;49.77;93183.59;4961650;28;20047;-80
2021/01/28 00:54:12;;;;;;;10.90;7.95;;;;;;;1.53;49.70;93187.28;4957752;28;20093;-80
2021/01/28 00:56:37;;;;;;;13.68;7.65;;;;;;;1.43;49.39;93169.75;4959468;28;20039;-80
2021/01/28 00:59:03;;;;;;;13.05;8.02;;;;;;;1.40;49.27;93166.88;4961025;28;20068;-80
2021/01/28 01:01:29;;;;;;;11.68;8.48;;;;;;;1.50;49.22;93169.56;4961098;28;20402;-79
2021/01/28 01:03:55;;;;;;;13.73;8.48;;;;;;;1.59;49.60;93191.50;4958361;28;20744;-80
2021/01/28 01:06:20;;;;;;;13.35;8.73;;;;;;;1.58;50.28;93189.94;4962061;28;20058;-79
2021/01/28 01:08:45;;;;;;;13.35;8.48;;;;;;;1.43;49.27;93187.19;4957434;28;20031;-78
2021/01/28 01:11:12;;;;;;;11.25;8.75;;;;;;;1.43;49.88;93182.00;4961601;28;20619;-80
2021/01/28 01:13:39;;;;;;;14.95;9.32;;;;;;;1.51;49.97;93184.16;4960341;28;20387;-81
2021/01/28 01:16:08;;;;;;;11.85;8.15;;;;;;;1.42;50.12;93170.03;4959548;28;20642;-79
2021/01/28 01:18:35;;;;;;;12.73;8.52;;;;;;;1.44;50.34;93183.56;4976470;28;20047;-81
2021/01/28 01:21:03;;;;;;;12.95;8.07;;;;;;;1.46;50.34;93171.88;4962629;28;20106;-78
2021/01/28 01:23:28;;;;;;;13.95;8.15;;;;;;;1.54;50.38;93173.25;4962211;28;20031;-80
2021/01/28 01:25:54;;;;;;;10.68;7.63;;;;;;;1.59;50.03;93170.69;4961717;28;20045;-81
2021/01/28 01:28:20;;;;;;;12.43;8.45;;;;;;;1.68;50.00;93172.56;4963853;28;20023;-80
2021/01/28 01:30:46;;;;;;;11.55;8.02;;;;;;;1.51;49.95;93152.91;4963591;28;20046;-80
2021/01/28 01:33:11;;;;;;;13.70;8.65;;;;;;;1.59;50.01;93168.06;4961881;28;20038;-80
2021/01/28 01:35:37;;;;;;;17.95;10.75;;;;;;;1.62;50.27;93167.56;4959892;28;20046;-81
2021/01/28 01:38:04;;;;;;;17.38;10.80;;;;;;;1.63;49.69;93161.31;4967412;28;20461;-80
2021/01/28 01:40:34;;;;;;;13.02;8.75;;;;;;;1.68;49.77;93163.97;4963222;28;20034;-80
2021/01/28 01:43:01;;;;;;;27.98;17.08;;;;;;;1.74;50.02;93168.19;4962186;28;20049;-80
2021/01/28 01:45:31;;;;;;;35.47;18.48;;;;;;;1.68;49.78;93169.19;4960113;28;20054;-80
2021/01/28 01:48:08;;;;;;;51.50;27.45;;;;;;;1.62;50.04;93164.97;4961940;28;20563;-82
2021/01/28 01:51:08;;;;;;;27.75;15.15;;;;;;;1.60;49.80;93161.84;4958924;28;20041;-80
2021/01/28 01:53:40;;;;;;;43.28;22.98;;;;;;;1.63;49.85;93166.53;4959043;28;20043;-80
2021/01/28 01:56:15;;;;;;;31.08;15.90;;;;;;;1.66;49.50;93169.41;4963384;28;20035;-80
2021/01/28 01:58:56;;;;;;;17.38;10.15;;;;;;;1.66;49.92;93176.47;4963549;28;20033;-80
2021/01/28 02:01:24;;;;;;;14.10;8.43;;;;;;;1.62;50.11;93177.97;4963575;28;20754;-79
2021/01/28 02:03:52;;;;;;;22.15;13.30;;;;;;;1.57;50.67;93173.53;4958697;28;20038;-80
2021/01/28 02:06:20;;;;;;;13.07;8.73;;;;;;;1.61;50.59;93173.84;4961361;28;20031;-79
2021/01/28 02:08:48;;;;;;;16.85;10.27;;;;;;;1.60;50.85;93188.66;4964254;28;20435;-80
2021/01/28 02:11:14;;;;;;;21.85;14.75;;;;;;;1.61;50.84;93189.47;4963238;28;20483;-79
2021/01/28 02:13:41;;;;;;;21.27;13.43;;;;;;;1.57;51.06;93178.72;4959681;28;20065;-80
2021/01/28 02:16:09;;;;;;;13.10;9.82;;;;;;;1.56;51.08;93182.38;4963483;28;20043;-80
2021/01/28 02:18:36;;;;;;;14.35;10.13;;;;;;;1.63;51.22;93176.94;4959118;28;20411;-80
2021/01/28 02:21:07;;;;;;;19.20;10.65;;;;;;;1.79;50.89;93186.47;4959194;28;20125;-79
2021/01/28 02:23:32;;;;;;;12.25;8.85;;;;;;;1.80;51.29;93190.66;4960163;28;20042;-80
2021/01/28 02:25:59;;;;;;;14.70;9.50;;;;;;;1.78;50.70;93195.31;4963660;28;20034;-79
2021/01/28 02:28:24;;;;;;;16.08;11.82;;;;;;;1.67;50.88;93188.44;4962206;28;20471;-77
2021/01/28 02:30:58;;;;;;;11.20;8.25;;;;;;;1.54;50.97;93179.22;4960191;28;20089;-78
2021/01/28 02:33:53;;;;;;;11.30;8.25;;;;;;;1.64;50.88;93197.56;4960985;28;20054;-80
2021/01/28 02:36:26;;;;;;;13.18;8.55;;;;;;;1.53;50.87;93189.88;4955059;28;20592;-80
2021/01/28 02:38:51;;;;;;;9.70;7.35;;;;;;;1.59;51.11;93196.72;4960226;28;20035;-77
2021/01/28 02:41:17;;;;;;;11.25;6.97;;;;;;;1.58;50.76;93200.34;4963121;28;20644;-79
2021/01/28 02:43:42;;;;;;;10.45;7.80;;;;;;;1.50;50.88;93198.19;4963120;28;20034;-80
2021/01/28 02:46:11;;;;;;;10.25;8.25;;;;;;;1.64;50.72;93205.38;4964835;28;20031;-80
2021/01/28 02:48:37;;;;;;;11.95;8.50;;;;;;;1.54;50.25;93191.47;4955636;28;20392;-80
2021/01/28 02:51:04;;;;;;;12.20;8.32;;;;;;;1.61;50.20;93210.28;4955855;28;20042;-78
2021/01/28 02:53:43;;;;;;;11.23;7.60;;;;;;;1.52;50.01;93198.72;4959030;28;20061;-80
2021/01/28 02:56:09;;;;;;;10.27;6.75;;;;;;;1.53;49.49;93203.69;4971868;28;20050;-81
2021/01/28 02:58:35;;;;;;;14.75;8.27;;;;;;;1.58;49.65;93206.34;4962481;28;20037;-81
2021/01/28 03:01:00;;;;;;;14.45;7.47;;;;;;;1.58;49.75;93206.34;4962136;28;20046;-79
2021/01/28 03:03:26;;;;;;;9.48;7.28;;;;;;;1.47;50.08;93209.09;4960636;28;20419;-81
2021/01/28 03:05:52;;;;;;;9.50;7.65;;;;;;;1.47;50.11;93212.50;4961654;28;20035;-80
2021/01/28 03:08:19;;;;;;;8.75;6.43;;;;;;;1.34;50.27;93188.69;4962186;28;20049;-80
2021/01/28 03:10:45;;;;;;;10.90;7.05;;;;;;;1.43;50.82;93200.22;4960263;28;20156;-81
2021/01/28 03:13:11;;;;;;;12.23;8.40;;;;;;;1.41;51.59;93194.47;4961038;28;20026;-81
2021/01/28 03:15:37;;;;;;;12.30;8.38;;;;;;;1.36;51.31;93186.63;4959980;28;20061;-80
2021/01/28 03:18:04;;;;;;;9.88;8.38;;;;;;;1.37;51.56;93198.63;4963140;28;20057;-80
2021/01/28 03:20:29;;;;;;;9.65;7.10;;;;;;;1.30;51.62;93181.38;4956028;28;20047;-81
2021/01/28 03:22:57;;;;;;;11.68;7.78;;;;;;;1.41;51.71;93194.47;4960806;28;20121;-81
2021/01/28 03:25:25;;;;;;;10.02;7.07;;;;;;;1.30;51.79;93189.19;4959094;28;20098;-80
2021/01/28 03:27:51;;;;;;;10.82;7.53;;;;;;;1.37;51.58;93193.41;4961684;28;20031;-79
2021/01/28 03:30:24;;;;;;;9.40;7.03;;;;;;;1.27;50.88;93173.28;4963108;28;20026;-80
2021/01/28 03:32:50;;;;;;;10.50;7.00;;;;;;;1.19;51.20;93163.28;4965284;28;20039;-80
2021/01/28 03:35:19;;;;;;;9.70;6.88;;;;;;;1.28;51.29;93193.84;4960943;28;20046;-79
2021/01/28 03:37:44;;;;;;;10.77;7.80;;;;;;;1.18;51.28;93179.94;4959500;28;20052;-80
2021/01/28 03:40:14;;;;;;;10.80;6.82;;;;;;;1.24;51.29;93184.16;4960955;28;20023;-80
2021/01/28 03:42:39;;;;;;;9.27;7.00;;;;;;;1.14;51.25;93179.66;4960637;28;20043;-81
2021/01/28 03:45:07;;;;;;;9.95;6.95;;;;;;;1.19;50.87;93182.31;4958429;28;20586;-80
2021/01/28 03:47:33;;;;;;;10.48;7.50;;;;;;;1.15;51.20;93173.41;4960843;28;20042;-80
2021/01/28 03:50:04;;;;;;;10.60;7.65;;;;;;;1.22;51.67;93189.59;4959962;28;20030;-81
2021/01/28 03:52:30;;;;;;;11.60;7.40;;;;;;;1.23;51.63;93182.59;4960917;28;20026;-79
2021/01/28 03:54:56;;;;;;;13.18;8.60;;;;;;;1.20;51.32;93176.06;4956174;28;20059;-80
2021/01/28 03:57:21;;;;;;;9.90;7.45;;;;;;;1.17;51.35;93173.94;4956355;28;20070;-81
2021/01/28 03:59:47;;;;;;;9.43;7.05;;;;;;;1.12;51.03;93173.91;4959040;28;20435;-81
2021/01/28 04:02:12;;;;;;;10.60;7.43;;;;;;;1.10;51.23;93162.16;4955229;28;20043;-81
2021/01/28 04:04:38;;;;;;;9.75;6.82;;;;;;;1.04;51.20;93171.72;4961630;28;20089;-80
2021/01/28 04:07:03;;;;;;;9.65;7.10;;;;;;;1.02;51.48;93179.00;4962095;28;21436;-79
2021/01/28 04:09:29;;;;;;;9.75;7.30;;;;;;;0.95;51.74;93170.59;4962524;28;20039;-79
2021/01/28 04:11:54;;;;;;;13.27;8.57;;;;;;;1.11;51.62;93190.56;4959489;28;20031;-79
2021/01/28 04:14:20;;;;;;;11.23;8.13;;;;;;;1.08;51.92;93191.03;4959733;28;20459;-80
2021/01/28 04:16:45;;;;;;;11.48;8.32;;;;;;;1.06;52.13;93172.28;4962770;28;20035;-80
2021/01/28 04:19:11;;;;;;;9.20;7.53;;;;;;;1.07;52.37;93189.47;4959508;28;20035;-80
2021/01/28 04:21:37;;;;;;;11.63;7.95;;;;;;;1.11;52.38;93190.56;4960942;28;20046;-80
2021/01/28 04:24:04;;;;;;;11.70;8.27;;;;;;;1.07;52.87;93191.28;4957913;28;20600;-80
2021/01/28 04:26:29;;;;;;;10.27;8.35;;;;;;;1.06;52.84;93177.50;4958912;28;20073;-78
2021/01/28 04:28:55;;;;;;;9.13;8.10;;;;;;;1.24;53.58;93190.16;4960158;28;20015;-80
2021/01/28 04:31:20;;;;;;;10.65;7.85;;;;;;;1.32;53.69;93190.75;4957042;28;20055;-80
2021/01/28 04:33:46;;;;;;;14.13;8.50;;;;;;;1.26;53.50;93182.13;4956491;28;20047;-80
2021/01/28 04:36:11;;;;;;;9.27;7.85;;;;;;;1.27;53.78;93194.84;4958518;28;20088;-80
2021/01/28 04:38:37;;;;;;;9.15;7.50;;;;;;;1.11;53.78;93180.16;4960352;28;20486;-80
2021/01/28 04:41:10;;;;;;;11.77;8.15;;;;;;;1.19;54.35;93186.72;4959642;28;20488;-80
2021/01/28 04:43:36;;;;;;;11.20;8.32;;;;;;;1.14;53.93;93195.25;4959767;28;20057;-80
2021/01/28 04:46:05;;;;;;;10.80;8.07;;;;;;;1.09;53.97;93189.22;4957792;28;20062;-80
2021/01/28 04:48:32;;;;;;;8.90;7.18;;;;;;;1.10;54.03;93199.38;4962047;28;20093;-80
2021/01/28 04:50:59;;;;;;;9.57;7.50;;;;;;;1.12;53.89;93191.34;4961519;28;20038;-80
2021/01/28 04:53:31;;;;;;;10.23;7.75;;;;;;;1.19;53.64;93208.31;4961593;28;20455;-80
2021/01/28 04:56:00;;;;;;;8.95;7.07;;;;;;;1.09;53.85;93218.63;4961733;28;20539;-79
2021/01/28 04:58:26;;;;;;;11.23;7.72;;;;;;;1.06;53.96;93207.94;4965256;28;20069;-79
2021/01/28 05:00:52;;;;;;;10.55;7.63;;;;;;;1.10;54.14;93207.19;4980207;28;20470;-80
2021/01/28 05:03:51;;;;;;;10.27;8.48;;;;;;;1.28;54.52;93222.47;4959340;28;20593;-80
2021/01/28 05:06:16;;;;;;;11.48;7.55;;;;;;;1.40;54.00;93222.31;4959090;28;20038;-81
2021/01/28 05:08:42;;;;;;;9.75;7.53;;;;;;;1.36;53.57;93197.03;4960457;28;21238;-81
2021/01/28 05:11:25;;;;;;;10.27;7.95;;;;;;;1.55;53.64;93225.06;4963046;28;20089;-81
2021/01/28 05:13:51;;;;;;;8.20;7.00;;;;;;;1.51;53.22;93212.81;4951296;28;20031;-81
2021/01/28 05:16:46;;;;;;;10.48;7.57;;;;;;;1.59;53.02;93218.34;4961190;28;20026;-81
2021/01/28 05:19:30;;;;;;;11.10;7.40;;;;;;;1.51;52.64;93212.81;4956379;28;20047;-81
2021/01/28 05:22:17;;;;;;;8.80;6.95;;;;;;;1.57;52.69;93228.19;4960775;28;20034;-81
2021/01/28 05:24:59;;;;;;;10.05;7.20;;;;;;;1.53;52.04;93226.34;4974364;28;20407;-80
2021/01/28 05:27:25;;;;;;;8.90;6.90;;;;;;;1.45;52.00;93226.78;4966418;28;20133;-81
2021/01/28 05:29:52;;;;;;;8.73;6.93;;;;;;;1.21;52.06;93228.91;4961879;28;20507;-80
2021/01/28 05:32:39;;;;;;;10.05;6.85;;;;;;;1.29;51.85;93238.88;4959259;28;20082;-80
2021/01/28 05:35:32;;;;;;;8.73;6.60;;;;;;;1.14;51.99;93242.09;4961417;28;20053;-80
2021/01/28 05:38:11;;;;;;;8.13;6.55;;;;;;;1.08;52.28;93245.66;4959280;28;20082;-81
2021/01/28 05:40:39;;;;;;;10.25;6.50;;;;;;;1.13;52.21;93256.13;4960777;28;20114;-80
2021/01/28 05:43:23;;;;;;;10.95;7.05;;;;;;;1.14;51.84;93257.72;4959874;28;20039;-80
2021/01/28 05:45:48;;;;;;;10.45;7.22;;;;;;;1.12;51.92;93259.78;4960097;28;20072;-80
2021/01/28 05:48:25;;;;;;;8.27;6.78;;;;;;;1.18;51.75;93271.81;4960701;28;20050;-81
2021/01/28 05:51:20;;;;;;;9.27;7.43;;;;;;;1.06;51.94;93250.34;4962757;28;20106;-79
2021/01/28 05:54:01;;;;;;;10.87;8.07;;;;;;;1.18;51.75;93273.63;4959884;28;20046;-80
2021/01/28 05:56:29;;;;;;;9.95;7.97;;;;;;;1.20;52.00;93266.38;4952635;28;20082;-79
2021/01/28 05:59:14;;;;;;;11.57;7.95;;;;;;;1.25;52.37;93269.03;4957823;28;20019;-81
2021/01/28 06:02:18;;;;;;;10.02;6.93;;;;;;;1.40;52.35;93271.00;4981490;28;20022;-81
2021/01/28 06:05:15;;;;;;;9.90;7.05;;;;;;;1.41;52.31;93275.19;4936218;28;20069;-78
2021/01/28 06:07:48;;;;;;;10.40;7.88;;;;;;;1.45;52.03;93268.44;4958088;28;20030;-80
2021/01/28 06:10:49;;;;;;;8.48;6.45;;;;;;;1.51;51.83;93268.28;4962569;28;20043;-80
2021/01/28 06:13:22;;;;;;;11.07;7.88;;;;;;;1.57;51.41;93272.47;4959590;28;20077;-81
2021/01/28 06:16:09;;;;;;;7.63;6.22;;;;;;;1.53;51.55;93266.19;4961925;28;20042;-80
2021/01/28 06:19:21;;;;;;;9.40;7.28;;;;;;;1.66;51.05;93284.00;4962234;28;20569;-81
2021/01/28 06:22:00;;;;;;;10.88;7.65;;;;;;;1.53;50.60;93260.19;4965649;28;20058;-81
2021/01/28 06:24:28;;;;;;;10.95;6.63;;;;;;;1.69;50.12;93274.94;4958892;28;20431;-81
2021/01/28 06:27:35;;;;;;;9.60;7.18;;;;;;;1.66;49.60;93275.44;4960635;28;20066;-81
2021/01/28 06:30:38;;;;;;;5.32;4.78;;;;;;;1.74;49.21;93277.59;4944312;28;20101;-81
2021/01/28 06:33:22;;;;;;;7.10;6.40;;;;;;;1.73;48.61;93265.59;4961131;28;20085;-81
2021/01/28 06:36:10;;;;;;;8.98;5.85;;;;;;;1.76;48.49;93265.09;4958169;28;20039;-80
2021/01/28 06:38:51;;;;;;;7.72;5.88;;;;;;;1.72;48.98;93264.81;4957897;28;20038;-80
2021/01/28 06:41:24;;;;;;;8.00;5.47;;;;;;;1.75;48.42;93281.78;4974590;28;20039;-80
2021/01/28 06:44:03;;;;;;;8.55;6.78;;;;;;;1.84;48.25;93267.25;4959283;28;20111;-77
2021/01/28 06:46:42;;;;;;;8.23;6.50;;;;;;;1.96;48.24;93278.28;4958284;28;20062;-80
2021/01/28 06:49:17;;;;;;;8.63;6.60;;;;;;;2.07;48.04;93282.56;4959620;28;20047;-80
2021/01/28 06:52:01;;;;;;;9.88;7.80;;;;;;;2.18;47.85;93284.22;4961903;28;20133;-80
2021/01/28 06:54:41;;;;;;;42.22;21.10;;;;;;;2.28;47.68;93267.88;4974225;28;20400;-81
2021/01/28 06:57:15;;;;;;;36.35;18.55;;;;;;;2.30;48.05;93270.25;4956977;28;20062;-81
2021/01/28 07:00:25;;;;;;;11.68;8.15;;;;;;;2.40;47.65;93280.72;4958804;28;20046;-80
2021/01/28 07:02:53;;;;;;;23.63;11.68;;;;;;;2.40;47.81;93285.94;4954532;28;21661;-81
2021/01/28 07:05:51;;;;;;;13.02;8.68;;;;;;;2.26;47.84;93295.22;4957893;28;20401;-79
2021/01/28 07:08:47;;;;;;;18.67;10.68;;;;;;;2.26;47.99;93290.78;4971728;28;20046;-80
2021/01/28 07:11:25;;;;;;;20.10;11.48;;;;;;;2.21;48.21;93295.19;4972119;28;20112;-79
2021/01/28 07:13:51;;;;;;;9.18;6.35;;;;;;;1.98;48.39;93285.88;4959757;28;20637;-78
2021/01/28 07:16:32;;;;;;;10.35;7.38;;;;;;;2.25;48.37;93304.84;4961675;28;20031;-80
2021/01/28 07:19:26;;;;;;;7.45;5.82;;;;;;;2.12;48.89;93300.84;4957874;28;20061;-80
2021/01/28 07:21:53;;;;;;;6.50;5.47;;;;;;;2.07;47.74;93287.00;4951129;28;20043;-80
2021/01/28 07:24:19;;;;;;;6.28;5.57;;;;;;;2.13;47.94;93299.81;4957859;28;20042;-81
2021/01/28 07:27:00;;;;;;;6.28;5.50;;;;;;;2.09;47.59;93283.13;4956488;28;24452;-81
2021/01/28 07:29:31;;;;;;;7.10;5.60;;;;;;;2.26;47.00;93300.44;4957117;28;20050;-80
2021/01/28 07:32:08;;;;;;;5.90;4.88;;;;;;;2.15;45.90;93292.53;5036793;28;20887;-79
2021/01/28 07:34:37;;;;;;;5.75;4.93;;;;;;;2.26;46.24;93296.00;5013243;28;20149;-80
2021/01/28 07:37:18;;;;;;;6.57;5.28;;;;;;;2.49;45.91;93318.34;5006516;28;20049;-81
2021/01/28 07:39:47;;;;;;;7.93;5.40;;;;;;;2.48;46.03;93320.16;5013999;28;20049;-80
2021/01/28 07:42:25;;;;;;;7.35;5.05;;;;;;;2.49;46.00;93310.53;5011674;28;20486;-80
2021/01/28 07:45:28;;;;;;;8.48;6.32;;;;;;;2.61;45.70;93311.91;5026504;28;20037;-81
2021/01/28 07:47:55;;;;;;;8.10;5.93;;;;;;;2.58;45.75;93306.41;5004363;28;20733;-81
2021/01/28 07:50:33;;;;;;;6.28;5.68;;;;;;;2.70;45.91;93304.38;5005167;28;21030;-79
2021/01/28 07:53:35;;;;;;;7.78;6.43;;;;;;;2.86;45.49;93294.84;5009431;28;20032;-78
2021/01/28 07:56:03;;;;;;;8.38;6.35;;;;;;;2.91;45.19;93293.03;5013038;28;20483;-80
2021/01/28 07:58:36;;;;;;;15.18;10.88;;;;;;;2.99;45.32;93294.38;5014351;28;20036;-78
2021/01/28 08:01:11;;;;;;;9.38;6.93;;;;;;;2.89;45.64;93300.31;5011262;28;20038;-78
2021/01/28 08:03:58;;;;;;;12.32;7.50;;;;;;;3.05;45.50;93301.97;5010710;28;20919;-80
2021/01/28 08:06:24;;;;;;;14.15;5.15;;;;;;;3.12;46.08;93306.19;5011851;28;20046;-81
2021/01/28 08:09:11;;;;;;;9.23;7.05;;;;;;;3.40;45.00;93317.03;5011441;28;20147;-80
2021/01/28 08:11:37;;;;;;;12.70;8.55;;;;;;;3.47;45.34;93321.97;5023874;28;20057;-79
2021/01/28 08:14:06;;;;;;;8.20;6.68;;;;;;;3.61;44.48;93312.66;5007853;28;20437;-80
2021/01/28 08:16:32;;;;;;;6.35;5.68;;;;;;;3.64;44.77;93312.13;5013037;28;20719;-79
2021/01/28 08:19:15;;;;;;;9.38;7.57;;;;;;;3.80;44.74;93321.59;5010722;28;20056;-78
2021/01/28 08:21:41;;;;;;;9.07;5.85;;;;;;;3.77;44.95;93322.09;5013258;28;20623;-79
2021/01/28 08:24:35;;;;;;;8.55;6.20;;;;;;;3.85;44.52;93318.19;5006813;28;20156;-80
2021/01/28 08:27:20;;;;;;;7.18;5.88;;;;;;;3.75;44.02;93318.16;5008459;28;20064;-79
2021/01/28 08:30:10;;;;;;;9.93;6.20;;;;;;;4.12;44.13;93318.75;5013039;28;20173;-79
2021/01/28 08:32:36;;;;;;;7.60;6.28;;;;;;;4.09;43.77;93315.88;5008538;28;20049;-79
2021/01/28 08:35:14;;;;;;;8.75;6.55;;;;;;;4.17;43.78;93313.53;5010911;28;20916;-79
2021/01/28 08:37:39;;;;;;;7.63;6.10;;;;;;;4.21;43.05;93301.50;5009773;28;20025;-80
2021/01/28 08:40:14;;;;;;;8.30;5.90;;;;;;;4.57;43.18;93327.66;5011512;28;20133;-78
2021/01/28 08:42:39;;;;;;;7.47;5.85;;;;;;;4.73;43.33;93327.41;5000976;28;20076;-79
2021/01/28 08:45:12;;;;;;;10.45;6.10;;;;;;;4.72;42.54;93331.06;4998284;28;20113;-79
2021/01/28 08:47:38;;;;;;;6.85;5.57;;;;;;;4.75;42.12;93317.44;4990984;28;20070;-79
2021/01/28 08:50:14;;;;;;;9.13;7.53;;;;;;;5.12;42.48;93337.28;4998051;28;20574;-80
2021/01/28 08:52:42;;;;;;;6.93;6.22;;;;;;;5.19;43.35;93327.28;4994803;28;20042;-79
2021/01/28 08:55:27;;;;;;;10.65;8.57;;;;;;;5.18;43.20;93315.28;4995802;28;20502;-80
2021/01/28 08:57:59;;;;;;;;;;;;;;;5.57;43.10;93337.13;4997389;28;20521;-80
2021/01/28 09:00:25;;;;;;;6.90;6.13;;;;;;;5.43;42.72;93333.50;4999228;28;19925;-79
2021/01/28 09:02:54;;;;;;;7.50;6.30;;;;;;;5.45;42.68;93313.06;4996242;28;20139;-80
2021/01/28 09:05:27;;;;;;;11.90;6.80;;;;;;;5.77;42.59;93345.94;4998733;28;20053;-79
2021/01/28 09:07:57;;;;;;;7.28;6.30;;;;;;;5.88;41.65;93313.41;5009898;28;20034;-81
2021/01/28 09:10:34;;;;;;;7.18;5.88;;;;;;;6.09;41.16;93330.63;4999251;28;20029;-80
2021/01/28 09:13:20;;;;;;;9.13;6.15;;;;;;;6.38;41.28;93343.81;4993764;28;20577;-80
2021/01/28 09:15:49;;;;;;;9.95;6.53;;;;;;;6.56;40.88;93340.50;4994963;28;20053;-80
2021/01/28 09:18:28;;;;;;;9.27;6.82;;;;;;;6.68;40.30;93337.53;4990917;28;20041;-80
2021/01/28 09:21:12;;;;;;;7.43;6.07;;;;;;;6.84;40.72;93354.75;4996324;28;20046;-81
2021/01/28 09:24:19;;;;;;;7.18;5.15;;;;;;;6.93;39.84;93324.97;5007705;28;20160;-80
2021/01/28 09:26:45;;;;;;;10.20;5.97;;;;;;;7.11;39.34;93344.50;4993195;28;20526;-80
2021/01/28 09:29:16;;;;;;;7.43;5.55;;;;;;;6.98;39.35;93347.78;4997070;28;20041;-80
2021/01/28 09:31:42;;;;;;;11.13;7.93;;;;;;;6.82;40.09;93341.09;4996304;28;20045;-80
2021/01/28 09:34:25;;;;;;;7.68;6.45;;;;;;;6.95;40.25;93348.31;4996371;28;20450;-79
2021/01/28 09:36:56;;;;;;;9.82;6.57;;;;;;;6.97;40.26;93356.72;4998993;28;20069;-80
2021/01/28 09:39:42;;;;;;;10.02;7.35;;;;;;;6.73;40.95;93355.88;4992094;28;20038;-79
2021/01/28 09:42:33;;;;;;;7.60;5.88;;;;;;;6.51;40.69;93337.94;4996996;28;20034;-79
2021/01/28 09:45:19;;;;;;;11.38;7.45;;;;;;;6.47;41.14;93350.81;4998825;28;20045;-79
2021/01/28 09:47:55;;;;;;;;;;;;;;;6.25;41.80;93360.16;4998493;28;20092;-79
2021/01/28 09:50:21;;;;;;;10.23;6.63;;;;;;;5.97;42.65;93356.38;4996308;28;19937;-78
2021/01/28 09:52:48;;;;;;;7.63;5.55;;;;;;;5.89;42.78;93354.31;4994857;28;20025;-77
2021/01/28 09:55:22;;;;;;;8.52;6.22;;;;;;;5.92;43.43;93351.94;4998535;28;20625;-78
2021/01/28 09:57:49;;;;;;;10.05;6.13;;;;;;;5.67;43.13;93352.81;5000726;28;20045;-79
2021/01/28 10:00:17;;;;;;;8.93;6.40;;;;;;;5.56;43.72;93348.69;5009377;28;20088;-79
2021/01/28 10:02:43;;;;;;;10.65;7.50;;;;;;;5.58;44.40;93348.38;4996688;28;20065;-78
2021/01/28 10:05:10;;;;;;;10.55;6.88;;;;;;;5.58;44.23;93346.56;4991104;28;20611;-78
2021/01/28 10:07:35;;;;;;;9.23;6.93;;;;;;;5.58;44.55;93322.97;4999183;28;20065;-77
2021/01/28 10:10:02;;;;;;;8.57;6.65;;;;;;;5.75;44.39;93340.19;4984509;28;20129;-78
2021/01/28 10:12:28;;;;;;;8.25;5.95;;;;;;;5.75;44.10;93314.78;4992858;28;20120;-78
2021/01/28 10:14:55;;;;;;;7.60;5.97;;;;;;;5.86;43.86;93323.38;4989596;28;20038;-78
2021/01/28 10:17:21;;;;;;;7.88;6.10;;;;;;;5.80;43.87;93321.81;4995002;28;20045;-78
2021/01/28 10:19:46;;;;;;;8.27;6.07;;;;;;;5.68;44.08;93336.03;4992744;28;20053;-80
2021/01/28 10:22:15;;;;;;;10.25;6.80;;;;;;;5.73;44.98;93321.31;4993882;28;20435;-80
2021/01/28 10:24:41;;;;;;;9.27;7.00;;;;;;;5.76;44.80;93320.81;4992665;28;20045;-77
2021/01/28 10:27:07;;;;;;;10.48;7.05;;;;;;;5.87;44.94;93327.56;4993368;28;20049;-77
2021/01/28 10:29:32;;;;;;;7.90;6.35;;;;;;;5.92;44.32;93319.69;4996406;28;20056;-80
2021/01/28 10:31:58;;;;;;;9.13;6.50;;;;;;;6.32;44.41;93323.91;4988421;28;20049;-77
2021/01/28 10:34:24;;;;;;;9.15;7.18;;;;;;;6.48;44.18;93320.09;4994341;28;20029;-78
2021/01/28 10:36:50;;;;;;;8.63;6.15;;;;;;;6.60;43.52;93310.03;5010225;28;20038;-80
2021/01/28 10:39:17;;;;;;;7.45;5.60;;;;;;;6.72;42.00;93318.34;4993080;28;20092;-79
2021/01/28 10:41:46;;;;;;;7.30;5.40;;;;;;;6.98;42.51;93297.88;4981689;28;20695;-79
2021/01/28 10:44:11;;;;;;;8.95;5.75;;;;;;;7.37;40.75;93314.28;4992322;28;20553;-89
2021/01/28 10:46:37;;;;;;;5.80;5.20;;;;;;;7.52;39.53;93325.69;4995434;28;20117;-87
2021/01/28 10:49:02;;;;;;;11.05;6.80;;;;;;;7.52;39.43;93325.69;4995821;28;20069;-84
2021/01/28 10:51:28;;;;;;;7.20;6.00;;;;;;;7.93;39.25;93321.47;4995475;28;20140;-81
2021/01/28 10:53:53;;;;;;;6.05;5.35;;;;;;;7.69;38.39;93320.75;4991142;28;20396;-84
2021/01/28 10:56:19;;;;;;;7.63;5.80;;;;;;;7.60;39.51;93317.97;5011655;28;20077;-81
2021/01/28 10:58:45;;;;;;;8.93;6.07;;;;;;;7.59;39.57;93315.59;4993256;28;20502;-80
2021/01/28 11:01:10;;;;;;;8.18;6.07;;;;;;;7.38;39.43;93313.19;4996905;28;20029;-82
2021/01/28 11:03:39;;;;;;;8.70;5.57;;;;;;;7.20;39.27;93311.31;4994422;28;20042;-82
2021/01/28 11:06:05;;;;;;;7.63;6.50;;;;;;;7.14;40.14;93314.25;4999370;28;20042;-82
2021/01/28 11:08:31;;;;;;;8.70;6.60;;;;;;;7.18;39.91;93321.34;4997599;28;20159;-79
2021/01/28 11:10:57;;;;;;;7.68;6.63;;;;;;;7.09;40.11;93317.72;4995951;28;20378;-79
2021/01/28 11:13:23;;;;;;;8.75;6.20;;;;;;;6.89;40.81;93318.69;4998951;28;20029;-85
2021/01/28 11:15:49;;;;;;;9.68;6.75;;;;;;;6.68;41.20;93306.81;4989584;28;20045;-86
2021/01/28 11:18:14;;;;;;;12.68;7.38;;;;;;;6.31;41.75;93296.88;4994571;28;20140;-79
2021/01/28 11:20:40;;;;;;;9.40;7.13;;;;;;;6.20;43.06;93308.50;4997061;28;20055;-77
2021/01/28 11:23:06;;;;;;;11.10;7.53;;;;;;;6.03;42.85;93315.94;4964128;28;20054;-81
2021/01/28 11:25:32;;;;;;;9.93;8.27;;;;;;;6.04;42.89;93304.41;4997784;28;20108;-81
2021/01/28 11:27:58;;;;;;;9.23;7.28;;;;;;;6.22;42.93;93298.50;4994156;28;20088;-80
2021/01/28 11:30:29;;;;;;;10.50;7.00;;;;;;;6.44;42.21;93322.50;4998651;28;20046;-84
2021/01/28 11:32:54;;;;;;;10.82;7.57;;;;;;;6.49;42.07;93314.59;4994042;28;20522;-83
2021/01/28 11:35:22;;;;;;;6.90;6.20;;;;;;;6.41;42.09;93291.53;5010177;28;20512;-85
2021/01/28 11:37:51;;;;;;;8.05;6.82;;;;;;;6.34;41.52;93300.81;4971989;28;20026;-84
2021/01/28 11:40:23;;;;;;;6.57;5.72;;;;;;;6.33;41.60;93300.00;4980497;28;20022;-79
2021/01/28 11:42:49;;;;;;;6.97;5.80;;;;;;;6.29;42.45;93300.84;4995615;28;20038;-81
2021/01/28 11:45:16;;;;;;;9.43;6.82;;;;;;;6.35;42.72;93312.88;4993408;28;20550;-81
2021/01/28 11:47:42;;;;;;;9.35;6.40;;;;;;;6.15;43.15;93295.44;5008498;28;20045;-81
2021/01/28 11:50:09;;;;;;;8.90;6.43;;;;;;;6.33;42.81;93305.25;5002032;28;20038;-79
2021/01/28 11:52:35;;;;;;;7.85;6.15;;;;;;;6.28;42.51;93296.63;4995881;28;20034;-82
2021/01/28 11:55:01;;;;;;;7.53;6.40;;;;;;;6.54;43.00;93295.41;4994668;28;20423;-78
2021/01/28 11:57:27;;;;;;;5.85;5.25;;;;;;;6.57;42.33;93291.41;4995651;28;20038;-83